Time;durP1;ratioP1;P1;durP2;ratioP2;P2;SDS_P1;SDS_P2;PMS_P1;PMS_P2;Temp;Humidity;BMP_temperature;BMP_pressure;BME280_temperature;BME280_humidity;BME280_pressure;Samples;Min_cycle;Max_cycle;Signal;HPM_P1;HPM_P2
2020/12/21 00:00:43;;;;;;;1.50;1.10;;;10.60;99.90;;;;;;20756514;28;20591;-72
2020/12/21 00:10:51;;;;;;;1.10;1.07;;;10.40;99.90;;;;;;20775198;28;20611;-73
2020/12/21 00:20:55;;;;;;;2.77;1.80;;;10.70;99.90;;;;;;20774894;28;20226;-75
2020/12/21 00:30:57;;;;;;;0.40;0.40;;;10.90;99.90;;;;;;20772463;28;20845;-73
2020/12/21 00:41:13;;;;;;;0.30;0.30;;;10.70;99.90;;;;;;20772244;28;20221;-74
2020/12/21 00:51:17;;;;;;;0.70;0.70;;;10.60;99.90;;;;;;20772727;28;20199;-71
2020/12/21 01:01:23;;;;;;;0.73;0.73;;;10.40;99.90;;;;;;20772017;28;20332;-72
2020/12/21 01:11:32;;;;;;;0.30;0.30;;;10.20;99.90;;;;;;20770943;28;20198;-72
2020/12/21 01:21:35;;;;;;;0.40;0.40;;;10.10;99.90;;;;;;20757664;28;20510;-72
2020/12/21 01:31:38;;;;;;;1.50;0.77;;;9.90;99.90;;;;;;20767772;28;20643;-73
2020/12/21 01:41:48;;;;;;;0.50;0.50;;;10.50;99.90;;;;;;20788339;28;20233;-73
2020/12/21 01:51:52;;;;;;;0.20;0.10;;;10.40;99.90;;;;;;20790887;28;20665;-74
2020/12/21 02:01:56;;;;;;;0.20;0.10;;;10.00;99.90;;;;;;20812597;28;20316;-73
2020/12/21 02:12:05;;;;;;;0.20;0.20;;;9.90;99.90;;;;;;20836513;28;20679;-73
2020/12/21 02:22:11;;;;;;;0.40;0.30;;;10.20;99.90;;;;;;20869809;28;20217;-73
2020/12/21 02:32:14;;;;;;;0.20;0.20;;;10.90;99.90;;;;;;20893024;28;20467;-74
2020/12/21 02:42:28;;;;;;;0.70;0.67;;;10.90;99.90;;;;;;20865791;28;20644;-73
2020/12/21 02:52:31;;;;;;;0.20;0.10;;;11.00;99.90;;;;;;20864474;28;20556;-73
2020/12/21 03:02:35;;;;;;;0.67;0.30;;;10.90;99.90;;;;;;20863400;28;20583;-72
2020/12/21 03:12:42;;;;;;;0.30;0.30;;;10.90;99.90;;;;;;20860945;28;20201;-71
2020/12/21 03:22:47;;;;;;;0.20;0.10;;;11.10;99.90;;;;;;20863543;28;20229;-72
2020/12/21 03:32:50;;;;;;;0.37;0.30;;;11.00;99.90;;;;;;20842685;28;20194;-71
2020/12/21 03:43:02;;;;;;;2.10;0.70;;;11.10;99.90;;;;;;20862051;28;20236;-72
2020/12/21 03:53:04;;;;;;;0.20;0.20;;;10.70;99.90;;;;;;20859559;28;20201;-71
2020/12/21 04:03:08;;;;;;;0.20;0.10;;;10.20;99.90;;;;;;20859238;28;20251;-73
2020/12/21 04:13:22;;;;;;;0.23;0.13;;;10.30;99.90;;;;;;20813325;28;20209;-73
2020/12/21 04:23:40;;;;;;;0.20;0.10;;;10.20;99.90;;;;;;20777599;28;20228;-72
2020/12/21 04:33:42;;;;;;;2.57;0.53;;;10.30;99.90;;;;;;20775035;28;20285;-72
2020/12/21 04:43:46;;;;;;;0.20;0.10;;;10.00;99.90;;;;;;20776110;28;20222;-72
2020/12/21 04:53:51;;;;;;;0.20;0.10;;;9.90;99.90;;;;;;20774215;28;20194;-72
2020/12/21 05:03:54;;;;;;;0.80;0.40;;;9.70;99.90;;;;;;20787741;28;20935;-71
2020/12/21 05:14:10;;;;;;;1.03;0.60;;;9.50;99.90;;;;;;20786843;28;20621;-73
2020/12/21 05:24:22;;;;;;;0.40;0.40;;;9.10;99.90;;;;;;20801473;28;20444;-71
2020/12/21 05:34:27;;;;;;;0.20;0.17;;;8.90;99.90;;;;;;20787905;28;20200;-73
2020/12/21 05:44:30;;;;;;;0.37;0.37;;;9.00;99.90;;;;;;20786384;28;20226;-74
2020/12/21 05:54:35;;;;;;;1.03;0.93;;;9.10;99.90;;;;;;20787833;28;20395;-72
2020/12/21 06:04:47;;;;;;;0.20;0.10;;;9.90;99.90;;;;;;20829200;28;20724;-71
2020/12/21 06:14:53;;;;;;;1.67;1.17;;;10.70;99.90;;;;;;20866420;28;20201;-71
2020/12/21 06:24:57;;;;;;;0.27;0.20;;;11.10;99.90;;;;;;20869458;28;20229;-73
2020/12/21 06:35:00;;;;;;;0.40;0.40;;;10.90;99.90;;;;;;20873533;28;20194;-74
2020/12/21 06:45:12;;;;;;;0.20;0.13;;;11.00;99.90;;;;;;20868991;28;20297;-74
2020/12/21 06:55:16;;;;;;;0.20;0.10;;;11.20;99.90;;;;;;20865893;28;20274;-75
2020/12/21 07:05:19;;;;;;;0.87;0.67;;;11.30;99.90;;;;;;20864889;28;20703;-73
2020/12/21 07:15:22;;;;;;;0.20;0.17;;;11.30;99.90;;;;;;20897184;28;20360;-73
2020/12/21 07:25:25;;;;;;;2.30;0.47;;;11.30;99.90;;;;;;20907509;28;20218;-73
2020/12/21 07:35:28;;;;;;;3.57;0.60;;;11.30;99.90;;;;;;20865067;28;20193;-75
2020/12/21 07:45:38;;;;;;;1.23;0.60;;;11.30;99.90;;;;;;20844661;28;20216;-74
2020/12/21 07:55:40;;;;;;;0.20;0.10;;;11.50;99.90;;;;;;20861142;28;20209;-74
2020/12/21 08:05:48;;;;;;;0.50;0.50;;;11.50;99.90;;;;;;20845858;28;20237;-74
2020/12/21 08:15:51;;;;;;;0.30;0.30;;;11.50;99.90;;;;;;20861176;28;20200;-73
2020/12/21 08:25:55;;;;;;;0.80;0.77;;;11.60;99.90;;;;;;20857765;28;20224;-74
2020/12/21 08:35:57;;;;;;;1.43;1.07;;;11.60;99.90;;;;;;20859335;28;20312;-74
2020/12/21 08:46:11;;;;;;;0.60;0.60;;;11.80;99.90;;;;;;20860096;28;20687;-72
2020/12/21 08:56:15;;;;;;;0.20;0.10;;;12.10;99.90;;;;;;20860498;28;20190;-73
2020/12/21 09:06:19;;;;;;;0.40;0.40;;;12.40;99.90;;;;;;20858484;28;20316;-74
2020/12/21 09:16:32;;;;;;;0.40;0.40;;;12.70;99.90;;;;;;20855858;28;20289;-73
2020/12/21 09:26:36;;;;;;;0.20;0.10;;;13.20;99.90;;;;;;20858680;28;20217;-74
2020/12/21 09:36:43;;;;;;;0.67;0.67;;;13.00;99.90;;;;;;20857042;28;20221;-73
2020/12/21 09:46:46;;;;;;;2.07;0.93;;;13.10;99.90;;;;;;20867568;28;20232;-71
2020/12/21 09:56:49;;;;;;;0.40;0.40;;;13.00;99.90;;;;;;20833913;28;20183;-74
2020/12/21 10:06:53;;;;;;;0.87;0.70;;;13.20;99.90;;;;;;20782731;28;20226;-74
2020/12/21 10:17:06;;;;;;;0.20;0.10;;;13.70;99.90;;;;;;20782470;28;20945;-73
2020/12/21 10:27:10;;;;;;;1.17;0.73;;;14.40;99.90;;;;;;20778574;28;20225;-74
2020/12/21 10:37:12;;;;;;;0.60;0.60;;;15.10;99.90;;;;;;20781951;28;20198;-76
2020/12/21 10:47:26;;;;;;;0.20;0.10;;;15.40;99.90;;;;;;20778585;28;20576;-75
2020/12/21 10:57:29;;;;;;;0.40;0.40;;;15.90;99.90;;;;;;20782693;28;20198;-75
2020/12/21 11:07:33;;;;;;;1.43;0.67;;;16.00;99.90;;;;;;20799063;28;20229;-79
2020/12/21 11:17:44;;;;;;;0.20;0.00;;;16.70;99.90;;;;;;20780545;28;20209;-72
2020/12/21 11:27:47;;;;;;;0.40;0.20;;;17.10;99.90;;;;;;20778890;28;20719;-71
2020/12/21 11:37:50;;;;;;;0.90;0.47;;;17.80;99.90;;;;;;20776602;28;20296;-72
2020/12/21 11:48:01;;;;;;;0.27;0.27;;;18.00;99.90;;;;;;20760669;28;20760;-72
2020/12/21 11:58:03;;;;;;;0.57;0.30;;;18.00;99.90;;;;;;20768490;28;20200;-76
2020/12/21 12:08:07;;;;;;;0.70;0.27;;;18.30;99.90;;;;;;20774576;28;20242;-73
2020/12/21 12:18:20;;;;;;;0.50;0.43;;;19.00;99.90;;;;;;20775376;28;20210;-78
2020/12/21 12:28:24;;;;;;;0.67;0.43;;;19.50;99.90;;;;;;20773703;28;20449;-75
2020/12/21 12:38:26;;;;;;;0.27;0.20;;;19.90;99.90;;;;;;20771710;28;20556;-73
2020/12/21 12:48:48;;;;;;;1.47;1.10;;;19.90;99.90;;;;;;20775818;28;20237;-75
2020/12/21 12:58:50;;;;;;;1.23;0.60;;;20.00;99.90;;;;;;20772958;28;20221;-74
2020/12/21 13:08:54;;;;;;;1.60;0.90;;;20.70;99.90;;;;;;20774895;28;20502;-78
2020/12/21 13:18:57;;;;;;;0.40;0.40;;;20.70;99.90;;;;;;20778019;28;20645;-73
2020/12/21 13:29:00;;;;;;;0.80;0.43;;;20.30;99.90;;;;;;20787429;28;20473;-75
2020/12/21 13:39:03;;;;;;;1.13;0.57;;;19.40;99.90;;;;;;20782642;28;20194;-75
2020/12/21 13:49:27;;;;;;;0.67;0.63;;;18.90;99.90;;;;;;20785469;28;20668;-73
2020/12/21 13:59:32;;;;;;;0.33;0.27;;;19.80;99.90;;;;;;20790162;28;20202;-74
2020/12/21 14:09:35;;;;;;;0.63;0.63;;;19.00;99.90;;;;;;20786341;28;20294;-72
2020/12/21 14:19:38;;;;;;;0.40;0.20;;;18.30;99.90;;;;;;20784911;28;20201;-72
2020/12/21 14:29:41;;;;;;;0.37;0.10;;;17.70;99.90;;;;;;20764192;28;20553;-75
2020/12/21 14:39:45;;;;;;;0.30;0.27;;;17.40;99.90;;;;;;20785206;28;20507;-77
2020/12/21 14:49:54;;;;;;;0.83;0.40;;;17.30;99.90;;;;;;20779196;28;20225;-74
2020/12/21 14:59:57;;;;;;;0.27;0.20;;;17.10;99.90;;;;;;20774823;28;20234;-75
2020/12/21 15:10:01;;;;;;;0.20;0.10;;;17.50;99.90;;;;;;20751103;28;20718;-73
2020/12/21 15:20:09;;;;;;;0.37;0.27;;;17.50;99.90;;;;;;20762872;28;20194;-75
2020/12/21 15:30:12;;;;;;;0.40;0.30;;;16.80;99.90;;;;;;20781894;28;20550;-73
2020/12/21 15:40:15;;;;;;;0.20;0.10;;;16.80;99.90;;;;;;20782294;28;20209;-75
2020/12/21 15:50:29;;;;;;;0.60;0.60;;;16.30;99.90;;;;;;20770189;28;20331;-74
2020/12/21 16:00:31;;;;;;;0.57;0.40;;;15.60;99.90;;;;;;20743288;28;20839;-73
2020/12/21 16:10:36;;;;;;;0.30;0.23;;;15.40;99.90;;;;;;20780170;28;20564;-73
2020/12/21 16:20:46;;;;;;;1.53;0.73;;;15.40;99.90;;;;;;20768257;28;20209;-71
2020/12/21 16:30:50;;;;;;;1.13;0.90;;;15.00;99.90;;;;;;20772584;28;20282;-73
2020/12/21 16:41:20;;;;;;;0.50;0.50;;;14.60;99.90;;;;;;20745375;28;20264;-71
2020/12/21 16:51:23;;;;;;;1.27;1.17;;;14.40;99.90;;;;;;20757480;28;20209;-75
2020/12/21 17:01:26;;;;;;;1.53;0.87;;;14.20;99.90;;;;;;20789446;28;20309;-73
2020/12/21 17:11:31;;;;;;;0.67;0.53;;;14.10;99.90;;;;;;20797776;28;20272;-73
2020/12/21 17:21:33;;;;;;;1.37;1.27;;;14.00;99.90;;;;;;20823868;28;20523;-73
2020/12/21 17:31:39;;;;;;;0.43;0.43;;;13.80;99.90;;;;;;20789848;28;20609;-73
2020/12/21 17:41:42;;;;;;;1.43;1.23;;;13.80;99.90;;;;;;20779278;28;20282;-72
2020/12/21 17:51:45;;;;;;;13.77;1.85;;;13.70;99.90;;;;;;20779646;28;20435;-73
2020/12/21 18:01:48;;;;;;;1.03;0.90;;;13.30;99.90;;;;;;20730665;28;20222;-72
2020/12/21 18:11:51;;;;;;;0.80;0.77;;;12.90;99.90;;;;;;20720545;28;20426;-72
2020/12/21 18:21:59;;;;;;;14.30;1.83;;;12.60;99.90;;;;;;20781677;28;20230;-73
2020/12/21 18:32:04;;;;;;;1.43;1.27;;;12.40;99.90;;;;;;20758063;28;20272;-71
2020/12/21 18:42:10;;;;;;;2.77;2.63;;;12.50;99.90;;;;;;20781809;28;20230;-71
2020/12/21 18:52:19;;;;;;;2.10;1.37;;;12.60;99.90;;;;;;20781724;28;20186;-71
2020/12/21 19:02:21;;;;;;;1.20;0.87;;;12.60;99.90;;;;;;20761518;28;20222;-71
2020/12/21 19:12:24;;;;;;;0.60;0.60;;;12.80;99.90;;;;;;20778515;28;20178;-71
2020/12/21 19:22:34;;;;;;;2.43;1.07;;;12.70;99.90;;;;;;20775290;28;20229;-70
2020/12/21 19:32:45;;;;;;;1.07;0.93;;;12.80;99.90;;;;;;20776931;28;20202;-69
2020/12/21 19:42:47;;;;;;;1.10;0.90;;;12.70;99.90;;;;;;20773186;28;20224;-69
2020/12/21 19:52:57;;;;;;;2.07;1.97;;;12.60;99.90;;;;;;20777661;28;20737;-69
2020/12/21 20:03:00;;;;;;;1.67;1.03;;;12.00;99.90;;;;;;20773971;28;20233;-69
2020/12/21 20:13:03;;;;;;;0.60;0.50;;;12.10;99.90;;;;;;20781293;28;20250;-69
2020/12/21 20:23:15;;;;;;;2.40;1.37;;;12.00;99.90;;;;;;20772736;28;20272;-69
2020/12/21 20:33:19;;;;;;;2.27;0.80;;;11.70;99.90;;;;;;20771943;28;20271;-68
2020/12/21 20:43:22;;;;;;;1.33;1.23;;;11.70;99.90;;;;;;20773524;28;20397;-70
2020/12/21 20:53:33;;;;;;;2.00;0.60;;;11.30;99.90;;;;;;20772622;28;20533;-70
2020/12/21 21:03:36;;;;;;;0.70;0.37;;;11.40;99.90;;;;;;20755895;28;20248;-69
2020/12/21 21:13:40;;;;;;;1.47;1.03;;;11.40;99.90;;;;;;20771220;28;20332;-69
2020/12/21 21:23:50;;;;;;;2.37;1.73;;;11.20;99.90;;;;;;20777454;28;20217;-69
2020/12/21 21:33:56;;;;;;;0.93;0.93;;;11.00;99.90;;;;;;20753612;28;20548;-73
2020/12/21 21:44:03;;;;;;;0.33;0.33;;;11.20;99.90;;;;;;20786602;28;20283;-70
2020/12/21 21:54:11;;;;;;;0.67;0.67;;;11.00;99.90;;;;;;20789624;28;20194;-68
2020/12/21 22:04:14;;;;;;;1.53;1.43;;;11.10;99.90;;;;;;20794247;28;20692;-68
2020/12/21 22:14:19;;;;;;;1.97;0.57;;;10.80;99.90;;;;;;20794327;28;20194;-69
2020/12/21 22:24:28;;;;;;;2.67;0.90;;;10.60;99.90;;;;;;20787492;28;20747;-68
2020/12/21 22:34:32;;;;;;;1.37;1.17;;;10.50;99.90;;;;;;20769082;28;20497;-67
2020/12/21 22:44:34;;;;;;;1.47;0.63;;;10.40;99.90;;;;;;20788533;28;20229;-68
2020/12/21 22:54:46;;;;;;;0.30;0.30;;;10.60;99.90;;;;;;20784956;28;20198;-68
2020/12/21 23:04:49;;;;;;;0.57;0.57;;;10.30;99.90;;;;;;20787010;28;20245;-68
2020/12/21 23:14:52;;;;;;;0.77;0.77;;;10.60;99.90;;;;;;20768114;28;20690;-68
2020/12/21 23:25:07;;;;;;;0.93;0.93;;;10.50;99.90;;;;;;20782716;28;20608;-67
2020/12/21 23:35:11;;;;;;;0.80;0.77;;;10.00;99.90;;;;;;20783018;28;20300;-68
2020/12/21 23:45:13;;;;;;;0.40;0.40;;;9.70;99.90;;;;;;20781469;28;20218;-68
2020/12/21 23:55:25;;;;;;;0.50;0.50;;;9.40;99.90;;;;;;20779465;28;20205;-68
